»·PEaware :: UAL935 KCOS-KDEN

UAL935 :: KCOS-KDEN

FLIGHT INFORMATION

Flight Status: Arrived
Operator:
United Airlines
More flights by this operator :: More flights under this callsign
Pilot: Michael S. (20314)
Aircraft: AIRBUS A321
(A321)
More flights by this aircraft type
Origin: KCOS City Of Colorado Springs Mun
United States
Destination: KDEN Denver Intl
United States
More flights between these airports :: More routes between these airports
Route: ADANE V389 LUFSE JEFEL
File this flight plan on PilotEdge
Remarks: RMK / SIMBRIEF
Altitude:
(Current/Filed)
12,000ft
Speed:
(Current/Filed)
353kts
Departed: 15-Oct-21 04:47 PM
Arrived: 15-Oct-21 05:17 PM
Distance/Time
Traveled:
63nm/0:30
Distance/Time
To Go:
Arrived

Flight Plot

Page will automatically refresh every two minutes.

Flight plan parsing failed; only flown route is shown


Map Options




Map Legend


Flown Route
Filed Route
Departure Airport
Arrival Airport
Navaid (VOR, NDB)
Fix

Horizontal Profiles

Position Reports

Time Latitude Longitude Heading Altitude Ground
Speed
15-Oct-21 16:18 38.797936 -104.701548 100 6196ft 0kts
15-Oct-21 16:19 38.797936 -104.701548 100 6196ft 0kts
15-Oct-21 16:20 38.797936 -104.701548 100 6196ft 0kts
15-Oct-21 16:21 38.797936 -104.701548 100 6196ft 0kts
15-Oct-21 16:22 38.797936 -104.701548 100 6196ft 0kts
15-Oct-21 16:23 38.797936 -104.701548 100 6196ft 0kts
15-Oct-21 16:24 38.797936 -104.701548 100 6196ft 0kts
15-Oct-21 16:25 38.797936 -104.701548 100 6196ft 0kts
15-Oct-21 16:26 38.797936 -104.701548 100 6196ft 0kts
15-Oct-21 16:27 38.797936 -104.701548 100 6196ft 0kts
15-Oct-21 16:28 38.797936 -104.701548 100 6196ft 0kts
15-Oct-21 16:29 38.798015 -104.701985 128 6196ft 2kts
15-Oct-21 16:30 38.798355 -104.702615 123 6196ft 2kts
15-Oct-21 16:31 38.798415 -104.702959 359 6196ft 0kts
15-Oct-21 16:32 38.798345 -104.702951 358 6196ft 0kts
15-Oct-21 16:33 38.798345 -104.702951 358 6196ft 0kts
15-Oct-21 16:34 38.798345 -104.702951 358 6196ft 0kts
15-Oct-21 16:35 38.798345 -104.702951 358 6196ft 0kts
15-Oct-21 16:36 38.798512 -104.702955 358 6196ft 2kts
15-Oct-21 16:37 38.800328 -104.701489 53 6196ft 11kts
15-Oct-21 16:38 38.803098 -104.699937 88 6196ft 13kts
15-Oct-21 16:39 38.803118 -104.694914 89 6196ft 14kts
15-Oct-21 16:40 38.803119 -104.690061 89 6196ft 14kts
15-Oct-21 16:41 38.804998 -104.687639 358 6196ft 13kts
15-Oct-21 16:42 38.809238 -104.687644 359 6196ft 17kts
15-Oct-21 16:43 38.814041 -104.687634 0 6196ft 16kts
15-Oct-21 16:44 38.815913 -104.687138 84 6196ft 0kts
15-Oct-21 16:45 38.815919 -104.686096 108 6196ft 8kts
15-Oct-21 16:46 38.785771 -104.685785 179 7187ft 183kts
15-Oct-21 16:47 38.733054 -104.685958 180 9218ft 214kts
15-Oct-21 16:48 38.663308 -104.686006 181 10000ft 292kts
15-Oct-21 16:49 38.582348 -104.681159 154 9974ft 299kts
15-Oct-21 16:50 38.577013 -104.584439 34 11569ft 335kts
15-Oct-21 16:51 38.663241 -104.537317 17 11990ft 339kts
15-Oct-21 16:52 38.749948 -104.490681 18 12009ft 339kts
15-Oct-21 16:53 38.836407 -104.443189 18 12021ft 338kts
15-Oct-21 16:54 38.926686 -104.400926 4 12024ft 343kts
15-Oct-21 16:55 39.020675 -104.394290 357 12026ft 339kts
15-Oct-21 16:56 39.115246 -104.389665 357 12025ft 338kts
15-Oct-21 16:57 39.208205 -104.379915 12 12027ft 344kts
15-Oct-21 16:58 39.290477 -104.313223 32 12025ft 353kts
15-Oct-21 16:59 39.375525 -104.260275 352 12024ft 335kts
15-Oct-21 17:00 39.457935 -104.305772 330 12003ft 307kts
15-Oct-21 17:01 39.534283 -104.356834 330 11997ft 309kts
15-Oct-21 17:02 39.610512 -104.407882 330 11992ft 309kts
15-Oct-21 17:03 39.686671 -104.458811 332 11989ft 309kts
15-Oct-21 17:04 39.769367 -104.466063 358 11515ft 286kts
15-Oct-21 17:05 39.848031 -104.464567 358 10010ft 284kts
15-Oct-21 17:06 39.926913 -104.466345 358 8511ft 284kts
15-Oct-21 17:07 40.001380 -104.469775 357 8006ft 248kts
15-Oct-21 17:08 40.064341 -104.481500 310 7997ft 218kts
15-Oct-21 17:09 40.076858 -104.551685 277 8014ft 200kts
15-Oct-21 17:10 40.084661 -104.623321 277 8013ft 197kts
15-Oct-21 17:11 40.077470 -104.688629 205 7998ft 198kts
15-Oct-21 17:12 40.022504 -104.694500 181 7904ft 200kts
15-Oct-21 17:13 39.973912 -104.695129 180 6954ft 155kts
15-Oct-21 17:14 39.931095 -104.695872 178 6183ft 153kts
15-Oct-21 17:15 39.889063 -104.696155 177 5443ft 140kts
15-Oct-21 17:16 39.873489 -104.696337 179 5443ft 15kts
15-Oct-21 17:17 39.866281 -104.695028 150 5443ft 25kts
15-Oct-21 17:18 39.860690 -104.690816 130 5443ft 20kts
15-Oct-21 17:19 39.860338 -104.687611 91 5443ft 19kts

Navigation Log

Ident Type
Flight plan parsing failed, navigation log unavailable